PWSweather.com
Personal Weather Stations
Station Observations

YeovilGB

Lat: 50.949, Lon: -2.627

Elevation: 70

Station Type: Vantage Pro

http://www.yeovil-weather.me.uk/

High Low Average
Temperature 52.4°F11.3°C 43.2°F6.2°C 48.0°F8.9°C
Dew Point 50.0°F10.0°C 40.6°F4.8°C 45.4°F7.4°C
Winds 19.6 mph 31.5 kmh Calm Calm 6.0 mph SW9.7 kmh SW
Wind Gusts 27.6 mph44.4 kmh -- 12.0 mph19.3 kmh
Humidity 97% 84% 91%
Pressure 29.88 in1011.9 mb 29.39 in995.3 mb -
Precipitation 0.21 in5.3 mm - -
Hour Temp Dew Point Humidity Winds Wind Gusts Pressure Precip Precip Rate Daily Precip Total
12:00 AM 46.2°F7.9°C 43.1°F6.2°C 89% 9.2 mph S14.8 kmh S 13.8 mph22.2 kmh 29.88 in1011.9 mb - 0.00 in0.0 mm 0.00 in0.0 mm
12:10 AM 46.4°F8.0°C 43.3°F6.3°C 89% 11.5 mph S18.5 kmh S 16.1 mph25.9 kmh 29.88 in1011.9 mb - 0.00 in0.0 mm 0.00 in0.0 mm
12:20 AM 46.6°F8.1°C 43.5°F6.4°C 89% 9.2 mph S14.8 kmh S 15.0 mph24.1 kmh 29.87 in1011.5 mb - 0.00 in0.0 mm 0.00 in0.0 mm
12:30 AM 46.8°F8.2°C 44.0°F6.7°C 90% 9.2 mph S14.8 kmh S 11.5 mph18.5 kmh 29.86 in1011.2 mb - 0.00 in0.0 mm 0.00 in0.0 mm
12:40 AM 47.0°F8.3°C 44.2°F6.8°C 90% 8.1 mph SSW13.0 kmh SSW 11.5 mph18.5 kmh 29.85 in1010.8 mb - 0.00 in0.0 mm 0.00 in0.0 mm
12:50 AM 47.2°F8.4°C 44.4°F6.9°C 90% 8.1 mph SSW13.0 kmh SSW 18.4 mph29.6 kmh 29.84 in1010.5 mb - 0.00 in0.0 mm 0.00 in0.0 mm
01:00 AM 47.5°F8.6°C 44.8°F7.1°C 90% 5.8 mph SSW9.3 kmh SSW 12.7 mph20.4 kmh 29.84 in1010.5 mb - 0.00 in0.0 mm 0.00 in0.0 mm
01:10 AM 47.8°F8.8°C 45.3°F7.4°C 91% 4.6 mph S7.4 kmh S 10.4 mph16.7 kmh 29.83 in1010.2 mb - 0.00 in0.0 mm 0.00 in0.0 mm
01:20 AM 47.9°F8.8°C 45.4°F7.4°C 91% 9.2 mph SSW14.8 kmh SSW 18.4 mph29.6 kmh 29.82 in1009.8 mb - 0.00 in0.0 mm 0.00 in0.0 mm
01:30 AM 48.0°F8.9°C 45.2°F7.3°C 90% 6.9 mph SSW11.1 kmh SSW 12.7 mph20.4 kmh 29.82 in1009.8 mb - 0.00 in0.0 mm 0.00 in0.0 mm
01:40 AM 48.1°F8.9°C 45.3°F7.4°C 90% 8.1 mph SW13.0 kmh SW 15.0 mph24.1 kmh 29.81 in1009.5 mb - 0.00 in0.0 mm 0.00 in0.0 mm
01:50 AM 48.1°F8.9°C 44.7°F7.1°C 88% 5.8 mph SSW9.3 kmh SSW 10.4 mph16.7 kmh 29.80 in1009.1 mb - 0.00 in0.0 mm 0.00 in0.0 mm
02:00 AM 48.2°F9.0°C 44.8°F7.1°C 88% 9.2 mph SSW14.8 kmh SSW 12.7 mph20.4 kmh 29.80 in1009.1 mb - 0.00 in0.0 mm 0.00 in0.0 mm
02:10 AM 48.2°F9.0°C 45.1°F7.3°C 89% 8.1 mph SSW13.0 kmh SSW 18.4 mph29.6 kmh 29.79 in1008.8 mb - 0.00 in0.0 mm 0.00 in0.0 mm
02:20 AM 48.2°F9.0°C 45.1°F7.3°C 89% 10.4 mph S16.7 kmh S 16.1 mph25.9 kmh 29.78 in1008.5 mb - 0.00 in0.0 mm 0.00 in0.0 mm
02:30 AM 48.2°F9.0°C 45.1°F7.3°C 89% 10.4 mph S16.7 kmh S 19.6 mph31.5 kmh 29.77 in1008.1 mb - 0.00 in0.0 mm 0.00 in0.0 mm
02:40 AM 48.2°F9.0°C 45.4°F7.4°C 90% 11.5 mph S18.5 kmh S 25.3 mph40.7 kmh 29.76 in1007.8 mb - 0.01 in0.3 mm 0.01 in0.3 mm
02:50 AM 48.0°F8.9°C 45.5°F7.5°C 91% 9.2 mph SSW14.8 kmh SSW 11.5 mph18.5 kmh 29.75 in1007.5 mb - 0.00 in0.0 mm 0.01 in0.3 mm
03:10 AM 47.5°F8.6°C 44.7°F7.1°C 90% 11.5 mph SSW18.5 kmh SSW 18.4 mph29.6 kmh 29.72 in1006.4 mb - 0.00 in0.0 mm 0.01 in0.3 mm
03:20 AM 47.2°F8.4°C 44.4°F6.9°C 90% 13.8 mph S22.2 kmh S 26.5 mph42.6 kmh 29.71 in1006.1 mb - 0.01 in0.3 mm 0.02 in0.5 mm
03:30 AM 47.4°F8.6°C 44.6°F7.0°C 90% 13.8 mph S22.2 kmh S 20.7 mph33.3 kmh 29.71 in1006.1 mb - 0.00 in0.0 mm 0.02 in0.5 mm
03:40 AM 47.7°F8.7°C 44.9°F7.2°C 90% 16.1 mph SSW25.9 kmh SSW 20.7 mph33.3 kmh 29.69 in1005.4 mb - 0.00 in0.0 mm 0.02 in0.5 mm
03:50 AM 47.9°F8.8°C 45.4°F7.4°C 91% 15.0 mph S24.1 kmh S 26.5 mph42.6 kmh 29.69 in1005.4 mb - 0.00 in0.0 mm 0.02 in0.5 mm
04:00 AM 48.0°F8.9°C 45.5°F7.5°C 91% 15.0 mph SSW24.1 kmh SSW 27.6 mph44.4 kmh 29.68 in1005.1 mb - 0.00 in0.0 mm 0.02 in0.5 mm
04:10 AM 47.9°F8.8°C 45.7°F7.6°C 92% 16.1 mph SSW25.9 kmh SSW 23.0 mph37.0 kmh 29.68 in1005.1 mb - 0.00 in0.0 mm 0.02 in0.5 mm
04:20 AM 47.8°F8.8°C 45.9°F7.7°C 93% 19.6 mph SSW31.5 kmh SSW 23.0 mph37.0 kmh 29.66 in1004.4 mb - 0.00 in0.0 mm 0.02 in0.5 mm
04:30 AM 47.9°F8.8°C 46.0°F7.8°C 93% 18.4 mph SSW29.6 kmh SSW 21.9 mph35.2 kmh 29.65 in1004.1 mb - 0.00 in0.0 mm 0.02 in0.5 mm
04:40 AM 47.8°F8.8°C 46.2°F7.9°C 94% 15.0 mph S24.1 kmh S 26.5 mph42.6 kmh 29.64 in1003.7 mb - 0.01 in0.3 mm 0.02 in0.5 mm
04:50 AM 47.9°F8.8°C 46.2°F7.9°C 94% 11.5 mph S18.5 kmh S 24.2 mph38.9 kmh 29.64 in1003.7 mb - 0.00 in0.0 mm 0.02 in0.5 mm
05:00 AM 47.9°F8.8°C 46.3°F7.9°C 94% 12.7 mph S20.4 kmh S 23.0 mph37.0 kmh 29.62 in1003.0 mb - 0.00 in0.0 mm 0.02 in0.5 mm
05:10 AM 48.1°F8.9°C 46.5°F8.1°C 94% 10.4 mph S16.7 kmh S 23.0 mph37.0 kmh 29.61 in1002.7 mb - 0.01 in0.3 mm 0.03 in0.8 mm
05:20 AM 48.4°F9.1°C 47.0°F8.3°C 95% 12.7 mph SSW20.4 kmh SSW 18.4 mph29.6 kmh 29.61 in1002.7 mb - 0.00 in0.0 mm 0.03 in0.8 mm
05:30 AM 48.6°F9.2°C 47.2°F8.4°C 95% 16.1 mph SSW25.9 kmh SSW 23.0 mph37.0 kmh 29.60 in1002.4 mb - 0.00 in0.0 mm 0.03 in0.8 mm
05:40 AM 48.8°F9.3°C 47.4°F8.6°C 95% 10.4 mph SSW16.7 kmh SSW 19.6 mph31.5 kmh 29.59 in1002.0 mb - 0.01 in0.3 mm 0.04 in1.0 mm
05:50 AM 48.8°F9.3°C 47.4°F8.6°C 95% 10.4 mph SSW16.7 kmh SSW 12.7 mph20.4 kmh 29.59 in1002.0 mb - 0.00 in0.0 mm 0.04 in1.0 mm
06:00 AM 49.0°F9.4°C 47.6°F8.7°C 95% 12.7 mph SSW20.4 kmh SSW 19.6 mph31.5 kmh 29.59 in1002.0 mb - 0.00 in0.0 mm 0.04 in1.0 mm
06:10 AM 49.0°F9.4°C 47.9°F8.8°C 96% 12.7 mph SSW20.4 kmh SSW 19.6 mph31.5 kmh 29.58 in1001.7 mb - 0.00 in0.0 mm 0.04 in1.0 mm
06:20 AM 49.2°F9.6°C 48.1°F8.9°C 96% 10.4 mph SSW16.7 kmh SSW 19.6 mph31.5 kmh 29.57 in1001.4 mb - 0.01 in0.3 mm 0.05 in1.3 mm
06:30 AM 49.3°F9.6°C 48.2°F9.0°C 96% 10.4 mph SSW16.7 kmh SSW 15.0 mph24.1 kmh 29.55 in1000.7 mb - 0.00 in0.0 mm 0.05 in1.3 mm
06:40 AM 49.4°F9.7°C 48.3°F9.1°C 96% 8.1 mph SSW13.0 kmh SSW 20.7 mph33.3 kmh 29.55 in1000.7 mb - 0.00 in0.0 mm 0.05 in1.3 mm
06:50 AM 49.6°F9.8°C 48.5°F9.2°C 96% 9.2 mph S14.8 kmh S 19.6 mph31.5 kmh 29.55 in1000.7 mb - 0.00 in0.0 mm 0.05 in1.3 mm
07:00 AM 49.6°F9.8°C 48.5°F9.2°C 96% 6.9 mph S11.1 kmh S 13.8 mph22.2 kmh 29.54 in1000.3 mb - 0.00 in0.0 mm 0.05 in1.3 mm
07:10 AM 49.7°F9.8°C 48.6°F9.2°C 96% 8.1 mph SW13.0 kmh SW 11.5 mph18.5 kmh 29.53 in1000.0 mb - 0.00 in0.0 mm 0.05 in1.3 mm
07:20 AM 49.7°F9.8°C 48.6°F9.2°C 96% 8.1 mph SSW13.0 kmh SSW 12.7 mph20.4 kmh 29.52 in999.7 mb - 0.00 in0.0 mm 0.05 in1.3 mm
07:30 AM 49.8°F9.9°C 48.7°F9.3°C 96% 4.6 mph SSW7.4 kmh SSW 9.2 mph14.8 kmh 29.52 in999.7 mb - 0.00 in0.0 mm 0.05 in1.3 mm
07:40 AM 49.9°F9.9°C 48.8°F9.3°C 96% 1.2 mph SSW1.9 kmh SSW 9.2 mph14.8 kmh 29.52 in999.7 mb - 0.00 in0.0 mm 0.05 in1.3 mm
07:50 AM 49.9°F9.9°C 48.8°F9.3°C 96% 1.2 mph SSW1.9 kmh SSW 4.6 mph7.4 kmh 29.52 in999.7 mb - 0.00 in0.0 mm 0.05 in1.3 mm
08:00 AM 50.0°F10.0°C 48.9°F9.4°C 96% 5.8 mph SSW9.3 kmh SSW 9.2 mph14.8 kmh 29.51 in999.3 mb - 0.00 in0.0 mm 0.05 in1.3 mm
08:10 AM 50.1°F10.1°C 48.7°F9.3°C 95% 1.2 mph S1.9 kmh S 8.1 mph13.0 kmh 29.50 in999.0 mb - 0.00 in0.0 mm 0.05 in1.3 mm
08:20 AM 50.1°F10.1°C 48.7°F9.3°C 95% 2.3 mph SSW3.7 kmh SSW 6.9 mph11.1 kmh 29.50 in999.0 mb - 0.00 in0.0 mm 0.05 in1.3 mm
08:30 AM 50.1°F10.1°C 48.7°F9.3°C 95% 1.2 mph SW1.9 kmh SW 6.9 mph11.1 kmh 29.50 in999.0 mb - 0.00 in0.0 mm 0.05 in1.3 mm
08:40 AM 50.2°F10.1°C 49.1°F9.5°C 96% 4.6 mph SSW7.4 kmh SSW 6.9 mph11.1 kmh 29.49 in998.6 mb - 0.00 in0.0 mm 0.05 in1.3 mm
08:50 AM 50.2°F10.1°C 49.1°F9.5°C 96% 4.6 mph SW7.4 kmh SW 11.5 mph18.5 kmh 29.49 in998.6 mb - 0.02 in0.5 mm 0.06 in1.5 mm
09:00 AM 50.2°F10.1°C 49.1°F9.5°C 96% 5.8 mph SW9.3 kmh SW 10.4 mph16.7 kmh 29.50 in999.0 mb - 0.02 in0.5 mm 0.08 in2.0 mm
09:10 AM 50.3°F10.2°C 49.2°F9.6°C 96% 6.9 mph SSW11.1 kmh SSW 10.4 mph16.7 kmh 29.49 in998.6 mb - 0.02 in0.5 mm 0.10 in2.5 mm
09:20 AM 50.2°F10.1°C 49.1°F9.5°C 96% 3.5 mph SW5.6 kmh SW 4.6 mph7.4 kmh 29.49 in998.6 mb - 0.02 in0.5 mm 0.12 in3.0 mm
09:30 AM 50.3°F10.2°C 49.2°F9.6°C 96% 3.5 mph SSW5.6 kmh SSW 6.9 mph11.1 kmh 29.48 in998.3 mb - 0.01 in0.3 mm 0.13 in3.3 mm
09:40 AM 50.3°F10.2°C 49.2°F9.6°C 96% 3.5 mph S5.6 kmh S 8.1 mph13.0 kmh 29.47 in998.0 mb - 0.01 in0.3 mm 0.13 in3.3 mm
09:50 AM 50.2°F10.1°C 49.1°F9.5°C 96% 3.5 mph S5.6 kmh S 10.4 mph16.7 kmh 29.46 in997.6 mb - 0.00 in0.0 mm 0.13 in3.3 mm
10:00 AM 50.3°F10.2°C 49.2°F9.6°C 96% 5.8 mph SSW9.3 kmh SSW 9.2 mph14.8 kmh 29.46 in997.6 mb - 0.01 in0.3 mm 0.14 in3.6 mm
10:10 AM 50.4°F10.2°C 49.3°F9.6°C 96% Calm Calm -- 29.46 in997.6 mb - 0.01 in0.3 mm 0.15 in3.8 mm
10:20 AM 50.4°F10.2°C 49.3°F9.6°C 96% 4.6 mph SSW7.4 kmh SSW 11.5 mph18.5 kmh 29.44 in997.0 mb - 0.01 in0.3 mm 0.15 in3.8 mm
10:30 AM 50.8°F10.4°C 50.0°F10.0°C 97% 4.6 mph SSW7.4 kmh SSW 6.9 mph11.1 kmh 29.44 in997.0 mb - 0.00 in0.0 mm 0.15 in3.8 mm
10:40 AM 50.9°F10.5°C 49.8°F9.9°C 96% 6.9 mph SSW11.1 kmh SSW 13.8 mph22.2 kmh 29.44 in997.0 mb - 0.00 in0.0 mm 0.15 in3.8 mm
10:50 AM 50.8°F10.4°C 49.7°F9.8°C 96% 5.8 mph SW9.3 kmh SW 8.1 mph13.0 kmh 29.44 in997.0 mb - 0.00 in0.0 mm 0.15 in3.8 mm
11:00 AM 51.0°F10.6°C 49.9°F9.9°C 96% 3.5 mph SW5.6 kmh SW 6.9 mph11.1 kmh 29.43 in996.6 mb - 0.00 in0.0 mm 0.15 in3.8 mm
11:10 AM 51.0°F10.6°C 49.9°F9.9°C 96% 1.2 mph SSW1.9 kmh SSW -- 29.43 in996.6 mb - 0.00 in0.0 mm 0.15 in3.8 mm
11:20 AM 51.1°F10.6°C 50.0°F10.0°C 96% 2.3 mph SW3.7 kmh SW 8.1 mph13.0 kmh 29.42 in996.3 mb - 0.00 in0.0 mm 0.15 in3.8 mm
11:30 AM 51.0°F10.6°C 49.9°F9.9°C 96% 6.9 mph SW11.1 kmh SW 12.7 mph20.4 kmh 29.41 in995.9 mb - 0.00 in0.0 mm 0.15 in3.8 mm
11:40 AM 50.9°F10.5°C 49.5°F9.7°C 95% 12.7 mph SW20.4 kmh SW 16.1 mph25.9 kmh 29.41 in995.9 mb - 0.00 in0.0 mm 0.15 in3.8 mm
11:50 AM 51.2°F10.7°C 49.5°F9.7°C 94% 8.1 mph WSW13.0 kmh WSW 18.4 mph29.6 kmh 29.41 in995.9 mb - 0.00 in0.0 mm 0.15 in3.8 mm
12:00 PM 51.7°F10.9°C 49.4°F9.7°C 92% 4.6 mph SW7.4 kmh SW 16.1 mph25.9 kmh 29.40 in995.6 mb - 0.00 in0.0 mm 0.15 in3.8 mm
12:10 PM 51.9°F11.1°C 49.4°F9.7°C 91% 9.2 mph SW14.8 kmh SW 16.1 mph25.9 kmh 29.40 in995.6 mb - 0.00 in0.0 mm 0.15 in3.8 mm
12:20 PM 52.1°F11.2°C 49.5°F9.7°C 91% 6.9 mph WSW11.1 kmh WSW 10.4 mph16.7 kmh 29.40 in995.6 mb - 0.01 in0.3 mm 0.16 in4.1 mm
12:30 PM 52.0°F11.1°C 49.5°F9.7°C 91% 9.2 mph WSW14.8 kmh WSW 11.5 mph18.5 kmh 29.40 in995.6 mb - 0.00 in0.0 mm 0.16 in4.1 mm
12:40 PM 51.8°F11.0°C 49.5°F9.7°C 92% 3.5 mph WSW5.6 kmh WSW 4.6 mph7.4 kmh 29.39 in995.3 mb - 0.01 in0.3 mm 0.17 in4.3 mm
12:50 PM 51.5°F10.8°C 49.2°F9.6°C 92% 9.2 mph WSW14.8 kmh WSW 13.8 mph22.2 kmh 29.40 in995.6 mb - 0.01 in0.3 mm 0.17 in4.3 mm
01:00 PM 51.9°F11.1°C 49.9°F9.9°C 93% 10.4 mph SW16.7 kmh SW 11.5 mph18.5 kmh 29.40 in995.6 mb - 0.00 in0.0 mm 0.17 in4.3 mm
01:10 PM 52.1°F11.2°C 49.8°F9.9°C 92% 6.9 mph WSW11.1 kmh WSW 11.5 mph18.5 kmh 29.40 in995.6 mb - 0.00 in0.0 mm 0.17 in4.3 mm
01:20 PM 52.4°F11.3°C 49.6°F9.8°C 90% 6.9 mph SW11.1 kmh SW 12.7 mph20.4 kmh 29.40 in995.6 mb - 0.00 in0.0 mm 0.17 in4.3 mm
01:30 PM 52.1°F11.2°C 48.7°F9.3°C 88% 8.1 mph WSW13.0 kmh WSW 13.8 mph22.2 kmh 29.40 in995.6 mb - 0.00 in0.0 mm 0.17 in4.3 mm
01:40 PM 51.8°F11.0°C 48.1°F8.9°C 87% 2.3 mph W3.7 kmh W 5.8 mph9.3 kmh 29.40 in995.6 mb - 0.00 in0.0 mm 0.17 in4.3 mm
01:50 PM 51.5°F10.8°C 48.1°F8.9°C 88% 2.3 mph WSW3.7 kmh WSW 9.2 mph14.8 kmh 29.41 in995.9 mb - 0.00 in0.0 mm 0.17 in4.3 mm
02:00 PM 51.2°F10.7°C 47.5°F8.6°C 87% 5.8 mph SW9.3 kmh SW 8.1 mph13.0 kmh 29.41 in995.9 mb - 0.00 in0.0 mm 0.17 in4.3 mm
02:10 PM 51.0°F10.6°C 47.3°F8.5°C 87% 5.8 mph SW9.3 kmh SW 10.4 mph16.7 kmh 29.40 in995.6 mb - 0.00 in0.0 mm 0.17 in4.3 mm
02:20 PM 50.4°F10.2°C 46.3°F7.9°C 86% 5.8 mph WNW9.3 kmh WNW 11.5 mph18.5 kmh 29.41 in995.9 mb - 0.01 in0.3 mm 0.18 in4.6 mm
02:30 PM 49.3°F9.6°C 45.6°F7.6°C 87% 4.6 mph WSW7.4 kmh WSW 11.5 mph18.5 kmh 29.41 in995.9 mb - 0.00 in0.0 mm 0.18 in4.6 mm
02:40 PM 49.0°F9.4°C 45.6°F7.6°C 88% 4.6 mph WNW7.4 kmh WNW 8.1 mph13.0 kmh 29.41 in995.9 mb - 0.00 in0.0 mm 0.18 in4.6 mm
02:50 PM 49.0°F9.4°C 45.6°F7.6°C 88% 3.5 mph W5.6 kmh W 11.5 mph18.5 kmh 29.41 in995.9 mb - 0.00 in0.0 mm 0.18 in4.6 mm
03:00 PM 48.7°F9.3°C 44.7°F7.1°C 86% 4.6 mph WSW7.4 kmh WSW 11.5 mph18.5 kmh 29.41 in995.9 mb - 0.00 in0.0 mm 0.18 in4.6 mm
03:10 PM 48.6°F9.2°C 44.6°F7.0°C 86% 8.1 mph SW13.0 kmh SW 11.5 mph18.5 kmh 29.42 in996.3 mb - 0.00 in0.0 mm 0.18 in4.6 mm
03:20 PM 48.6°F9.2°C 44.3°F6.8°C 85% 5.8 mph SW9.3 kmh SW 16.1 mph25.9 kmh 29.42 in996.3 mb - 0.00 in0.0 mm 0.18 in4.6 mm
03:30 PM 48.5°F9.2°C 43.8°F6.6°C 84% 1.2 mph W1.9 kmh W 9.2 mph14.8 kmh 29.42 in996.3 mb - 0.00 in0.0 mm 0.18 in4.6 mm
03:40 PM 48.2°F9.0°C 43.9°F6.6°C 85% 1.2 mph WNW1.9 kmh WNW 11.5 mph18.5 kmh 29.43 in996.6 mb - 0.00 in0.0 mm 0.18 in4.6 mm
03:50 PM 48.1°F8.9°C 43.5°F6.4°C 84% 6.9 mph SW11.1 kmh SW 12.7 mph20.4 kmh 29.44 in997.0 mb - 0.00 in0.0 mm 0.18 in4.6 mm
04:00 PM 47.8°F8.8°C 43.2°F6.2°C 84% 6.9 mph SW11.1 kmh SW 11.5 mph18.5 kmh 29.43 in996.6 mb - 0.00 in0.0 mm 0.18 in4.6 mm
04:10 PM 47.3°F8.5°C 43.0°F6.1°C 85% 6.9 mph WSW11.1 kmh WSW 10.4 mph16.7 kmh 29.44 in997.0 mb - 0.00 in0.0 mm 0.18 in4.6 mm
04:20 PM 46.9°F8.3°C 42.6°F5.9°C 85% 2.3 mph SW3.7 kmh SW 4.6 mph7.4 kmh 29.44 in997.0 mb - 0.00 in0.0 mm 0.18 in4.6 mm
04:30 PM 46.8°F8.2°C 42.8°F6.0°C 86% 1.2 mph WSW1.9 kmh WSW 1.2 mph1.9 kmh 29.44 in997.0 mb - 0.00 in0.0 mm 0.18 in4.6 mm
04:40 PM 46.5°F8.1°C 42.5°F5.8°C 86% 2.3 mph WSW3.7 kmh WSW 4.6 mph7.4 kmh 29.45 in997.3 mb - 0.00 in0.0 mm 0.18 in4.6 mm
04:50 PM 46.3°F7.9°C 42.0°F5.6°C 85% 3.5 mph WSW5.6 kmh WSW 11.5 mph18.5 kmh 29.45 in997.3 mb - 0.00 in0.0 mm 0.18 in4.6 mm
05:00 PM 46.1°F7.8°C 41.5°F5.3°C 84% 4.6 mph WSW7.4 kmh WSW 10.4 mph16.7 kmh 29.45 in997.3 mb - 0.00 in0.0 mm 0.18 in4.6 mm
05:10 PM 46.0°F7.8°C 41.7°F5.4°C 85% 5.8 mph WSW9.3 kmh WSW 6.9 mph11.1 kmh 29.45 in997.3 mb - 0.00 in0.0 mm 0.18 in4.6 mm
05:20 PM 45.8°F7.7°C 41.5°F5.3°C 85% 8.1 mph SW13.0 kmh SW 15.0 mph24.1 kmh 29.45 in997.3 mb - 0.00 in0.0 mm 0.18 in4.6 mm
05:30 PM 45.6°F7.6°C 41.4°F5.2°C 85% 8.1 mph SW13.0 kmh SW 11.5 mph18.5 kmh 29.46 in997.6 mb - 0.00 in0.0 mm 0.18 in4.6 mm
05:40 PM 45.8°F7.7°C 41.6°F5.3°C 85% 5.8 mph SW9.3 kmh SW 11.5 mph18.5 kmh 29.46 in997.6 mb - 0.00 in0.0 mm 0.18 in4.6 mm
05:50 PM 45.9°F7.7°C 41.6°F5.3°C 85% 8.1 mph WSW13.0 kmh WSW 9.2 mph14.8 kmh 29.46 in997.6 mb - 0.00 in0.0 mm 0.18 in4.6 mm
06:00 PM 45.5°F7.5°C 41.6°F5.3°C 86% 8.1 mph SW13.0 kmh SW 11.5 mph18.5 kmh 29.46 in997.6 mb - 0.00 in0.0 mm 0.18 in4.6 mm
06:10 PM 45.1°F7.3°C 41.5°F5.3°C 87% 3.5 mph SW5.6 kmh SW 9.2 mph14.8 kmh 29.46 in997.6 mb - 0.00 in0.0 mm 0.18 in4.6 mm
06:20 PM 45.1°F7.3°C 41.8°F5.4°C 88% 6.9 mph WSW11.1 kmh WSW 5.8 mph9.3 kmh 29.45 in997.3 mb - 0.00 in0.0 mm 0.18 in4.6 mm
06:30 PM 45.0°F7.2°C 41.4°F5.2°C 87% 5.8 mph SW9.3 kmh SW 11.5 mph18.5 kmh 29.46 in997.6 mb - 0.00 in0.0 mm 0.18 in4.6 mm
06:40 PM 44.8°F7.1°C 41.5°F5.3°C 88% Calm Calm -- 29.45 in997.3 mb - 0.00 in0.0 mm 0.18 in4.6 mm
06:50 PM 44.4°F6.9°C 41.1°F5.1°C 88% Calm Calm -- 29.45 in997.3 mb - 0.00 in0.0 mm 0.18 in4.6 mm
07:00 PM 44.2°F6.8°C 41.2°F5.1°C 89% 1.2 mph SW1.9 kmh SW 5.8 mph9.3 kmh 29.45 in997.3 mb - 0.00 in0.0 mm 0.18 in4.6 mm
07:10 PM 44.3°F6.8°C 41.5°F5.3°C 90% 3.5 mph SW5.6 kmh SW 6.9 mph11.1 kmh 29.45 in997.3 mb - 0.00 in0.0 mm 0.18 in4.6 mm
07:20 PM 44.7°F7.1°C 41.6°F5.3°C 89% 5.8 mph SW9.3 kmh SW 12.7 mph20.4 kmh 29.45 in997.3 mb - 0.00 in0.0 mm 0.18 in4.6 mm
07:30 PM 45.2°F7.3°C 42.2°F5.7°C 89% 5.8 mph WSW9.3 kmh WSW 9.2 mph14.8 kmh 29.45 in997.3 mb - 0.00 in0.0 mm 0.18 in4.6 mm
07:40 PM 45.3°F7.4°C 42.2°F5.7°C 89% 4.6 mph SW7.4 kmh SW 6.9 mph11.1 kmh 29.46 in997.6 mb - 0.00 in0.0 mm 0.18 in4.6 mm
07:50 PM 45.3°F7.4°C 42.5°F5.8°C 90% 4.6 mph SW7.4 kmh SW 11.5 mph18.5 kmh 29.46 in997.6 mb - 0.00 in0.0 mm 0.18 in4.6 mm
08:10 PM 45.1°F7.3°C 42.3°F5.7°C 90% Calm Calm -- 29.45 in997.3 mb - 0.01 in0.3 mm 0.19 in4.8 mm
08:20 PM 45.0°F7.2°C 42.5°F5.8°C 91% Calm Calm -- 29.45 in997.3 mb - 0.01 in0.3 mm 0.20 in5.1 mm
08:30 PM 44.9°F7.2°C 42.4°F5.8°C 91% 1.2 mph SW1.9 kmh SW 6.9 mph11.1 kmh 29.46 in997.6 mb - 0.00 in0.0 mm 0.20 in5.1 mm
08:40 PM 44.6°F7.0°C 42.1°F5.6°C 91% 2.3 mph SW3.7 kmh SW 6.9 mph11.1 kmh 29.45 in997.3 mb - 0.00 in0.0 mm 0.20 in5.1 mm
08:50 PM 44.5°F6.9°C 42.1°F5.6°C 91% 5.8 mph SW9.3 kmh SW 10.4 mph16.7 kmh 29.45 in997.3 mb - 0.00 in0.0 mm 0.20 in5.1 mm
09:00 PM 44.8°F7.1°C 41.7°F5.4°C 89% 1.2 mph SW1.9 kmh SW 6.9 mph11.1 kmh 29.45 in997.3 mb - 0.00 in0.0 mm 0.20 in5.1 mm
09:10 PM 44.9°F7.2°C 41.6°F5.3°C 88% 4.6 mph SW7.4 kmh SW 8.1 mph13.0 kmh 29.45 in997.3 mb - 0.00 in0.0 mm 0.20 in5.1 mm
09:20 PM 45.0°F7.2°C 41.6°F5.3°C 88% 4.6 mph SW7.4 kmh SW 11.5 mph18.5 kmh 29.45 in997.3 mb - 0.00 in0.0 mm 0.20 in5.1 mm
09:30 PM 45.0°F7.2°C 41.4°F5.2°C 87% 2.3 mph SW3.7 kmh SW 4.6 mph7.4 kmh 29.45 in997.3 mb - 0.00 in0.0 mm 0.20 in5.1 mm
09:40 PM 45.0°F7.2°C 41.3°F5.2°C 87% 4.6 mph SW7.4 kmh SW 8.1 mph13.0 kmh 29.45 in997.3 mb - 0.00 in0.0 mm 0.20 in5.1 mm
09:50 PM 45.1°F7.3°C 41.5°F5.3°C 87% 5.8 mph SW9.3 kmh SW 11.5 mph18.5 kmh 29.45 in997.3 mb - 0.00 in0.0 mm 0.20 in5.1 mm
10:00 PM 44.9°F7.2°C 41.3°F5.2°C 87% 9.2 mph SW14.8 kmh SW 16.1 mph25.9 kmh 29.46 in997.6 mb - 0.01 in0.3 mm 0.21 in5.3 mm
10:10 PM 44.5°F6.9°C 41.1°F5.1°C 88% 3.5 mph SW5.6 kmh SW 8.1 mph13.0 kmh 29.45 in997.3 mb - 0.00 in0.0 mm 0.21 in5.3 mm
10:20 PM 44.1°F6.7°C 41.1°F5.1°C 89% 3.5 mph SW5.6 kmh SW 9.2 mph14.8 kmh 29.44 in997.0 mb - 0.00 in0.0 mm 0.21 in5.3 mm
10:30 PM 43.7°F6.5°C 40.7°F4.8°C 89% Calm Calm -- 29.45 in997.3 mb - 0.00 in0.0 mm 0.21 in5.3 mm
10:40 PM 43.3°F6.3°C 40.6°F4.8°C 90% Calm Calm -- 29.44 in997.0 mb - 0.00 in0.0 mm 0.21 in5.3 mm
10:50 PM 43.2°F6.2°C 40.8°F4.9°C 91% 1.2 mph SW1.9 kmh SW 1.2 mph1.9 kmh 29.44 in997.0 mb - 0.00 in0.0 mm 0.21 in5.3 mm
11:00 PM 43.2°F6.2°C 40.8°F4.9°C 91% Calm Calm 1.2 mph1.9 kmh 29.44 in997.0 mb - 0.00 in0.0 mm 0.21 in5.3 mm
11:10 PM 43.3°F6.3°C 41.1°F5.1°C 92% 3.5 mph SW5.6 kmh SW 8.1 mph13.0 kmh 29.44 in997.0 mb - 0.00 in0.0 mm 0.21 in5.3 mm
11:20 PM 43.9°F6.6°C 41.7°F5.4°C 92% 5.8 mph SW9.3 kmh SW 11.5 mph18.5 kmh 29.44 in997.0 mb - 0.01 in0.3 mm 0.21 in5.3 mm
11:30 PM 44.5°F6.9°C 42.0°F5.6°C 91% 6.9 mph SW11.1 kmh SW 9.2 mph14.8 kmh 29.44 in997.0 mb - 0.00 in0.0 mm 0.21 in5.3 mm
11:40 PM 44.6°F7.0°C 42.1°F5.6°C 91% 6.9 mph SW11.1 kmh SW 12.7 mph20.4 kmh 29.44 in997.0 mb - 0.00 in0.0 mm 0.21 in5.3 mm
11:50 PM 44.7°F7.1°C 42.2°F5.7°C 91% 3.5 mph SW5.6 kmh SW 11.5 mph18.5 kmh 29.43 in996.6 mb - 0.00 in0.0 mm 0.21 in5.3 mm